Ballinger, TX (76821)

11:22 AM CST on February 14, 2016 (GMT -0600)
Hutchings Ave | | Change Station
CLOSE
Current Station
Personal Weather Station
Location: Ballinger, TX
Elevation: 1631 ft
Nearby Weather Stations

Elev 1631 ft 31.74 °N, 99.95 °W | Updated 6 seconds ago

Partly Cloudy
Partly Cloudy
62.2 °F
Feels Like 62.2 °F
N
2.0
Wind Variable Wind from SW
Gusts 11.0 mph

Today
High -- | Low -- °F
--% Chance of Precip.
Yesterday
High -- | Low -- °F
Precip. -- in
Pressure 29.97 in
Visibility 10.0 miles
Clouds Overcast 2100 ft
Dew Point 52 °F
Humidity 69%
Rainfall 0.00 in
Snow Depth Not available.
7:23 AM 6:25 PM
Waxing Crescent, 43% visible
METAR KCOM 141655Z AUTO 24008KT 10SM OVC021 16/10 A2997 RMK AO2 T01620104
Pressure 29.97 in
Visibility 10.0 miles
Clouds Overcast 2100 ft
Dew Point 52 °F
Humidity 69%
Rainfall 0.00 in
Snow Depth Not available.
7:23 AM 6:25 PM
Waxing Crescent, 43% visible
METAR KCOM 141655Z AUTO 24008KT 10SM OVC021 16/10 A2997 RMK AO2 T01620104

10-Day Weather Forecast

Almanac

Astronomy

Feb. 14, 2016 Rise Set
Actual Time
Civil Twilight
Nautical Twilight
Astronomical Twilight
Moon
Length of Visible Light
Length of Day
Tomorrow will be .
, % of the Moon is Illuminated

Today's Extremes

State Highs State Lows

Community

WunderPhotos

Upload Photos

1,892,856 photos uploaded!

WunderBlog® & News

Nearby

Air Quality

  Air Quality AQ Index Pollutant
Not available.

Snow Depth

Station Depth Elevation

Earthquake Activity

City Distance Mag. Time & Date
Minimum magnitude displayed is 2.5.

Coastal Water Temperatures

Place Temperature

Stations

Nearby Weather Stations

Station Location Temp. Windchill Dew Point Humidity Wind Precip. Elev Updated Type
                   

Watches & Warnings

There are currently no watches in effect.